METAR Data
IDs: Format: Raw Decoded Include TAF

Data at: 1055 UTC 18 Jan 2022

LBPG 181000Z 29014KT 9999 FEW060 06/M08 Q1025